sensor_id;sensor_type;location;lat;lon;timestamp;pressure;altitude;pressure_sealevel;temperature;humidity
39405;BME280;25121;51.090;17.038;2023-03-16T00:00:00;100430.59;;;3.31;61.11
39405;BME280;25121;51.090;17.038;2023-03-16T00:01:23;100441.94;;;3.33;60.99
39405;BME280;25121;51.090;17.038;2023-03-16T00:02:46;100444.72;;;3.31;60.88
39405;BME280;25121;51.090;17.038;2023-03-16T00:04:09;100439.53;;;3.30;60.91
39405;BME280;25121;51.090;17.038;2023-03-16T00:05:30;100437.34;;;3.23;60.80
39405;BME280;25121;51.090;17.038;2023-03-16T00:06:53;100437.94;;;3.27;60.94
39405;BME280;25121;51.090;17.038;2023-03-16T00:08:14;100436.53;;;3.23;60.94
39405;BME280;25121;51.090;17.038;2023-03-16T00:09:40;100440.00;;;3.23;61.09
39405;BME280;25121;51.090;17.038;2023-03-16T00:11:02;100443.50;;;3.24;60.93
39405;BME280;25121;51.090;17.038;2023-03-16T00:12:25;100440.00;;;3.23;61.00
39405;BME280;25121;51.090;17.038;2023-03-16T00:13:52;100446.28;;;3.22;61.14
39405;BME280;25121;51.090;17.038;2023-03-16T00:15:14;100450.75;;;3.22;60.96
39405;BME280;25121;51.090;17.038;2023-03-16T00:16:35;100437.31;;;3.12;61.21
39405;BME280;25121;51.090;17.038;2023-03-16T00:17:57;100447.72;;;3.15;61.16
39405;BME280;25121;51.090;17.038;2023-03-16T00:19:19;100445.94;;;3.16;61.12
39405;BME280;25121;51.090;17.038;2023-03-16T00:20:42;100445.94;;;3.16;61.06
39405;BME280;25121;51.090;17.038;2023-03-16T00:22:03;100459.19;;;3.16;61.15
39405;BME280;25121;51.090;17.038;2023-03-16T00:23:25;100456.53;;;3.16;61.30
39405;BME280;25121;51.090;17.038;2023-03-16T00:24:47;100454.00;;;3.14;61.33
39405;BME280;25121;51.090;17.038;2023-03-16T00:26:09;100459.56;;;3.11;61.26
39405;BME280;25121;51.090;17.038;2023-03-16T00:27:34;100452.41;;;3.12;61.18
39405;BME280;25121;51.090;17.038;2023-03-16T00:28:55;100454.34;;;3.10;61.18
39405;BME280;25121;51.090;17.038;2023-03-16T00:30:17;100457.25;;;3.07;61.39
39405;BME280;25121;51.090;17.038;2023-03-16T00:31:40;100456.06;;;3.11;61.40
39405;BME280;25121;51.090;17.038;2023-03-16T00:33:04;100458.94;;;3.08;61.77
39405;BME280;25121;51.090;17.038;2023-03-16T00:34:26;100462.44;;;3.08;61.55
39405;BME280;25121;51.090;17.038;2023-03-16T00:35:49;100454.09;;;3.01;61.51
39405;BME280;25121;51.090;17.038;2023-03-16T00:37:21;100462.56;;;3.07;61.40
39405;BME280;25121;51.090;17.038;2023-03-16T00:38:44;100465.22;;;3.07;61.35
39405;BME280;25121;51.090;17.038;2023-03-16T00:40:10;100464.22;;;3.08;61.17
39405;BME280;25121;51.090;17.038;2023-03-16T00:41:35;100461.81;;;3.05;61.25
39405;BME280;25121;51.090;17.038;2023-03-16T00:42:59;100469.69;;;3.06;61.15
39405;BME280;25121;51.090;17.038;2023-03-16T00:44:21;100458.56;;;3.01;61.56
39405;BME280;25121;51.090;17.038;2023-03-16T00:45:45;100470.63;;;3.05;61.45
39405;BME280;25121;51.090;17.038;2023-03-16T00:47:07;100470.75;;;3.04;61.84
39405;BME280;25121;51.090;17.038;2023-03-16T00:48:30;100459.66;;;2.98;61.82
39405;BME280;25121;51.090;17.038;2023-03-16T00:49:57;100481.97;;;3.07;61.43
39405;BME280;25121;51.090;17.038;2023-03-16T00:51:21;100477.50;;;3.08;61.52
39405;BME280;25121;51.090;17.038;2023-03-16T00:52:43;100474.00;;;3.07;61.47
39405;BME280;25121;51.090;17.038;2023-03-16T00:54:06;100474.84;;;3.08;61.26
39405;BME280;25121;51.090;17.038;2023-03-16T00:55:27;100477.66;;;3.06;61.29
39405;BME280;25121;51.090;17.038;2023-03-16T00:56:50;100474.25;;;3.04;61.44
39405;BME280;25121;51.090;17.038;2023-03-16T00:58:14;100452.28;;;2.91;61.54
39405;BME280;25121;51.090;17.038;2023-03-16T00:59:36;100481.97;;;3.07;61.30
39405;BME280;25121;51.090;17.038;2023-03-16T01:00:58;100478.50;;;3.07;61.52
39405;BME280;25121;51.090;17.038;2023-03-16T01:02:21;100441.38;;;2.83;61.45
39405;BME280;25121;51.090;17.038;2023-03-16T01:03:44;100471.72;;;3.02;61.61
39405;BME280;25121;51.090;17.038;2023-03-16T01:05:06;100474.38;;;3.02;61.37
39405;BME280;25121;51.090;17.038;2023-03-16T01:06:28;100481.50;;;3.02;61.42
39405;BME280;25121;51.090;17.038;2023-03-16T01:07:49;100488.63;;;3.01;61.41
39405;BME280;25121;51.090;17.038;2023-03-16T01:09:11;100488.00;;;2.98;61.44
39405;BME280;25121;51.090;17.038;2023-03-16T01:10:34;100489.94;;;2.96;61.21
39405;BME280;25121;51.090;17.038;2023-03-16T01:11:56;100480.59;;;2.90;61.31
39405;BME280;25121;51.090;17.038;2023-03-16T01:13:19;100485.81;;;2.92;61.41
39405;BME280;25121;51.090;17.038;2023-03-16T01:14:43;100471.41;;;2.83;61.42
39405;BME280;25121;51.090;17.038;2023-03-16T01:16:06;100490.38;;;2.90;61.33
39405;BME280;25121;51.090;17.038;2023-03-16T01:17:29;100487.72;;;2.90;61.64
39405;BME280;25121;51.090;17.038;2023-03-16T01:18:54;100466.09;;;2.72;61.48
39405;BME280;25121;51.090;17.038;2023-03-16T01:20:17;100495.59;;;2.91;61.55
39405;BME280;25121;51.090;17.038;2023-03-16T01:21:40;100484.69;;;2.83;61.63
39405;BME280;25121;51.090;17.038;2023-03-16T01:23:03;100482.03;;;2.83;61.92
39405;BME280;25121;51.090;17.038;2023-03-16T01:24:25;100498.25;;;2.91;61.69
39405;BME280;25121;51.090;17.038;2023-03-16T01:25:47;100477.19;;;2.77;61.72
39405;BME280;25121;51.090;17.038;2023-03-16T01:27:13;100498.25;;;2.91;61.73
39405;BME280;25121;51.090;17.038;2023-03-16T01:28:37;100493.19;;;2.88;61.65
39405;BME280;25121;51.090;17.038;2023-03-16T01:29:59;100501.75;;;2.92;61.63
39405;BME280;25121;51.090;17.038;2023-03-16T01:31:22;100497.50;;;2.89;61.63
39405;BME280;25121;51.090;17.038;2023-03-16T01:32:44;100501.75;;;2.92;61.51
39405;BME280;25121;51.090;17.038;2023-03-16T01:34:06;100509.09;;;2.88;61.67
39405;BME280;25121;51.090;17.038;2023-03-16T01:35:28;100510.78;;;2.89;61.50
39405;BME280;25121;51.090;17.038;2023-03-16T01:36:52;100515.25;;;2.89;61.55
39405;BME280;25121;51.090;17.038;2023-03-16T01:38:22;100519.81;;;2.87;61.52
39405;BME280;25121;51.090;17.038;2023-03-16T01:39:44;100519.81;;;2.87;61.68
39405;BME280;25121;51.090;17.038;2023-03-16T01:41:07;100518.25;;;2.84;61.92
39405;BME280;25121;51.090;17.038;2023-03-16T01:42:29;100523.44;;;2.86;61.80
39405;BME280;25121;51.090;17.038;2023-03-16T01:43:52;100519.19;;;2.83;61.89
39405;BME280;25121;51.090;17.038;2023-03-16T01:47:32;100517.75;;;2.79;61.74
39405;BME280;25121;51.090;17.038;2023-03-16T01:49:03;100516.03;;;2.78;61.60
39405;BME280;25121;51.090;17.038;2023-03-16T01:50:27;100520.63;;;2.76;61.77
39405;BME280;25121;51.090;17.038;2023-03-16T01:51:52;100525.94;;;2.76;61.80
39405;BME280;25121;51.090;17.038;2023-03-16T01:53:18;100520.13;;;2.71;61.75
39405;BME280;25121;51.090;17.038;2023-03-16T01:54:45;100511.44;;;2.69;62.00
39405;BME280;25121;51.090;17.038;2023-03-16T01:56:09;100476.72;;;2.48;61.78
39405;BME280;25121;51.090;17.038;2023-03-16T01:57:34;100521.09;;;2.70;61.89
39405;BME280;25121;51.090;17.038;2023-03-16T01:59:08;100527.97;;;2.72;61.84
39405;BME280;25121;51.090;17.038;2023-03-16T02:00:31;100527.97;;;2.72;61.71
39405;BME280;25121;51.090;17.038;2023-03-16T02:02:13;100525.56;;;2.69;61.96
39405;BME280;25121;51.090;17.038;2023-03-16T02:03:36;100523.00;;;2.68;61.86
39405;BME280;25121;51.090;17.038;2023-03-16T02:05:13;100523.97;;;2.67;62.11
39405;BME280;25121;51.090;17.038;2023-03-16T02:06:37;100525.56;;;2.69;62.10
39405;BME280;25121;51.090;17.038;2023-03-16T02:08:07;100481.41;;;2.44;62.25
39405;BME280;25121;51.090;17.038;2023-03-16T02:09:34;100526.63;;;2.67;62.20
39405;BME280;25121;51.090;17.038;2023-03-16T02:10:59;100525.66;;;2.68;62.06
39405;BME280;25121;51.090;17.038;2023-03-16T02:12:33;100525.88;;;2.65;62.23
39405;BME280;25121;51.090;17.038;2023-03-16T02:14:01;100518.41;;;2.58;62.08
39405;BME280;25121;51.090;17.038;2023-03-16T02:15:26;100521.66;;;2.62;62.19
39405;BME280;25121;51.090;17.038;2023-03-16T02:16:49;100531.19;;;2.65;62.27
39405;BME280;25121;51.090;17.038;2023-03-16T02:18:12;100530.34;;;2.64;62.15
39405;BME280;25121;51.090;17.038;2023-03-16T02:19:43;100530.34;;;2.64;62.15
39405;BME280;25121;51.090;17.038;2023-03-16T02:21:13;100523.81;;;2.57;62.16
39405;BME280;25121;51.090;17.038;2023-03-16T02:22:41;100538.31;;;2.64;62.42
39405;BME280;25121;51.090;17.038;2023-03-16T02:24:04;100529.94;;;2.57;62.56
39405;BME280;25121;51.090;17.038;2023-03-16T02:25:30;100525.81;;;2.53;62.36
39405;BME280;25121;51.090;17.038;2023-03-16T02:27:00;100533.25;;;2.61;62.30
39405;BME280;25121;51.090;17.038;2023-03-16T02:28:32;100528.28;;;2.56;62.20
39405;BME280;25121;51.090;17.038;2023-03-16T02:30:04;100534.31;;;2.58;62.62
39405;BME280;25121;51.090;17.038;2023-03-16T02:31:35;100531.66;;;2.58;62.44
39405;BME280;25121;51.090;17.038;2023-03-16T02:32:58;100531.13;;;2.53;62.47
39405;BME280;25121;51.090;17.038;2023-03-16T02:34:21;100529.00;;;2.58;62.61
39405;BME280;25121;51.090;17.038;2023-03-16T02:35:44;100536.00;;;2.59;62.49
39405;BME280;25121;51.090;17.038;2023-03-16T02:37:07;100539.50;;;2.60;62.46
39405;BME280;25121;51.090;17.038;2023-03-16T02:38:29;100539.72;;;2.57;62.54
39405;BME280;25121;51.090;17.038;2023-03-16T02:39:53;100538.75;;;2.58;62.61
39405;BME280;25121;51.090;17.038;2023-03-16T02:41:17;100539.72;;;2.57;62.67
39405;BME280;25121;51.090;17.038;2023-03-16T02:42:52;100545.03;;;2.57;62.64
39405;BME280;25121;51.090;17.038;2023-03-16T02:44:17;100548.41;;;2.59;62.62
39405;BME280;25121;51.090;17.038;2023-03-16T02:45:50;100547.59;;;2.58;62.73
39405;BME280;25121;51.090;17.038;2023-03-16T02:47:21;100534.84;;;2.51;62.58
39405;BME280;25121;51.090;17.038;2023-03-16T02:48:48;100545.88;;;2.57;62.66
39405;BME280;25121;51.090;17.038;2023-03-16T02:50:13;100547.91;;;2.54;62.91
39405;BME280;25121;51.090;17.038;2023-03-16T02:51:35;100550.56;;;2.54;62.86
39405;BME280;25121;51.090;17.038;2023-03-16T02:52:56;100552.16;;;2.56;62.76
39405;BME280;25121;51.090;17.038;2023-03-16T02:54:18;100547.91;;;2.54;62.80
39405;BME280;25121;51.090;17.038;2023-03-16T02:55:39;100550.44;;;2.55;62.89
39405;BME280;25121;51.090;17.038;2023-03-16T02:57:01;100555.00;;;2.53;62.83
39405;BME280;25121;51.090;17.038;2023-03-16T02:58:29;100564.69;;;2.54;62.82
39405;BME280;25121;51.090;17.038;2023-03-16T02:59:54;100554.41;;;2.50;62.77
39405;BME280;25121;51.090;17.038;2023-03-16T03:01:18;100562.97;;;2.53;62.87
39405;BME280;25121;51.090;17.038;2023-03-16T03:02:39;100551.84;;;2.48;62.80
39405;BME280;25121;51.090;17.038;2023-03-16T03:04:01;100560.53;;;2.50;63.10
39405;BME280;25121;51.090;17.038;2023-03-16T03:05:24;100559.69;;;2.50;62.92
39405;BME280;25121;51.090;17.038;2023-03-16T03:06:46;100558.13;;;2.47;62.96
39405;BME280;25121;51.090;17.038;2023-03-16T03:08:07;100559.09;;;2.46;62.97
39405;BME280;25121;51.090;17.038;2023-03-16T03:09:29;100561.00;;;2.44;62.86
39405;BME280;25121;51.090;17.038;2023-03-16T03:10:51;100552.19;;;2.44;62.89
39405;BME280;25121;51.090;17.038;2023-03-16T03:12:14;100567.06;;;2.46;63.07
39405;BME280;25121;51.090;17.038;2023-03-16T03:13:35;100559.19;;;2.45;63.06
39405;BME280;25121;51.090;17.038;2023-03-16T03:15:05;100570.66;;;2.45;63.07
39405;BME280;25121;51.090;17.038;2023-03-16T03:16:38;100572.56;;;2.43;63.04
39405;BME280;25121;51.090;17.038;2023-03-16T03:18:01;100567.16;;;2.45;63.20
39405;BME280;25121;51.090;17.038;2023-03-16T03:19:25;100565.47;;;2.44;63.41
39405;BME280;25121;51.090;17.038;2023-03-16T03:20:46;100572.69;;;2.42;63.24
39405;BME280;25121;51.090;17.038;2023-03-16T03:22:09;100573.63;;;2.41;63.23
39405;BME280;25121;51.090;17.038;2023-03-16T03:23:31;100571.94;;;2.40;63.40
39405;BME280;25121;51.090;17.038;2023-03-16T03:24:54;100572.03;;;2.38;63.35
39405;BME280;25121;51.090;17.038;2023-03-16T03:26:17;100572.78;;;2.40;63.23
39405;BME280;25121;51.090;17.038;2023-03-16T03:27:41;100561.75;;;2.33;63.26
39405;BME280;25121;51.090;17.038;2023-03-16T03:29:05;100568.13;;;2.31;63.41
39405;BME280;25121;51.090;17.038;2023-03-16T03:30:28;100577.16;;;2.41;63.43
39405;BME280;25121;51.090;17.038;2023-03-16T03:31:51;100586.03;;;2.40;63.56
39405;BME280;25121;51.090;17.038;2023-03-16T03:33:13;100577.47;;;2.36;63.52
39405;BME280;25121;51.090;17.038;2023-03-16T03:34:34;100572.59;;;2.30;63.59
39405;BME280;25121;51.090;17.038;2023-03-16T03:35:58;100581.59;;;2.41;63.55
39405;BME280;25121;51.090;17.038;2023-03-16T03:37:24;100581.72;;;2.39;63.75
39405;BME280;25121;51.090;17.038;2023-03-16T03:38:47;100579.16;;;2.37;63.27
39405;BME280;25121;51.090;17.038;2023-03-16T03:40:13;100587.75;;;2.41;63.49
39405;BME280;25121;51.090;17.038;2023-03-16T03:41:38;100586.88;;;2.41;63.66
39405;BME280;25121;51.090;17.038;2023-03-16T03:43:01;100587.84;;;2.40;63.58
39405;BME280;25121;51.090;17.038;2023-03-16T03:44:27;100583.53;;;2.39;63.60
39405;BME280;25121;51.090;17.038;2023-03-16T03:45:48;100583.53;;;2.39;63.67
39405;BME280;25121;51.090;17.038;2023-03-16T03:47:12;100578.53;;;2.34;63.60
39405;BME280;25121;51.090;17.038;2023-03-16T03:48:33;100588.94;;;2.37;63.70
39405;BME280;25121;51.090;17.038;2023-03-16T03:49:55;100579.16;;;2.37;63.70
39405;BME280;25121;51.090;17.038;2023-03-16T03:51:17;100585.53;;;2.35;63.82
39405;BME280;25121;51.090;17.038;2023-03-16T03:53:01;100588.09;;;2.36;63.29
39405;BME280;25121;51.090;17.038;2023-03-16T03:54:29;100581.91;;;2.36;63.64
39405;BME280;25121;51.090;17.038;2023-03-16T03:55:55;100580.31;;;2.33;63.42
39405;BME280;25121;51.090;17.038;2023-03-16T03:57:17;100583.09;;;2.32;63.65
39405;BME280;25121;51.090;17.038;2023-03-16T03:58:42;100577.16;;;2.28;63.72
39405;BME280;25121;51.090;17.038;2023-03-16T04:00:10;100583.22;;;2.30;63.66
39405;BME280;25121;51.090;17.038;2023-03-16T04:01:33;100588.63;;;2.29;63.69
39405;BME280;25121;51.090;17.038;2023-03-16T04:02:56;100588.75;;;2.27;63.54
39405;BME280;25121;51.090;17.038;2023-03-16T04:04:25;100587.16;;;2.25;63.97
39405;BME280;25121;51.090;17.038;2023-03-16T04:05:47;100599.34;;;2.27;63.74
39405;BME280;25121;51.090;17.038;2023-03-16T04:07:13;100591.50;;;2.26;63.55
39405;BME280;25121;51.090;17.038;2023-03-16T04:08:37;100595.84;;;2.27;63.66
39405;BME280;25121;51.090;17.038;2023-03-16T04:10:03;100595.00;;;2.26;63.78
39405;BME280;25121;51.090;17.038;2023-03-16T04:11:30;100595.94;;;2.25;63.83
39405;BME280;25121;51.090;17.038;2023-03-16T04:12:52;100591.72;;;2.23;63.94
39405;BME280;25121;51.090;17.038;2023-03-16T04:14:15;100597.75;;;2.25;63.95
39405;BME280;25121;51.090;17.038;2023-03-16T04:15:36;100587.38;;;2.22;64.12
39405;BME280;25121;51.090;17.038;2023-03-16T04:17:12;100586.88;;;2.17;63.83
39405;BME280;25121;51.090;17.038;2023-03-16T04:18:36;100587.94;;;2.14;63.81
39405;BME280;25121;51.090;17.038;2023-03-16T04:20:00;100600.50;;;2.23;63.91
39405;BME280;25121;51.090;17.038;2023-03-16T04:21:23;100600.41;;;2.25;63.96
39405;BME280;25121;51.090;17.038;2023-03-16T04:22:47;100590.97;;;2.21;64.01
39405;BME280;25121;51.090;17.038;2023-03-16T04:24:09;100594.81;;;2.17;63.87
39405;BME280;25121;51.090;17.038;2023-03-16T04:25:34;100603.28;;;2.22;63.92
39405;BME280;25121;51.090;17.038;2023-03-16T04:26:59;100601.47;;;2.22;63.83
39405;BME280;25121;51.090;17.038;2023-03-16T04:28:23;100604.22;;;2.21;64.04
39405;BME280;25121;51.090;17.038;2023-03-16T04:29:46;100609.53;;;2.21;63.94
39405;BME280;25121;51.090;17.038;2023-03-16T04:31:09;100611.34;;;2.20;64.04
39405;BME280;25121;51.090;17.038;2023-03-16T04:32:40;100608.69;;;2.20;64.26
39405;BME280;25121;51.090;17.038;2023-03-16T04:34:14;100606.13;;;2.19;64.09
39405;BME280;25121;51.090;17.038;2023-03-16T04:35:39;100616.66;;;2.20;64.21
39405;BME280;25121;51.090;17.038;2023-03-16T04:37:06;100614.09;;;2.19;64.23
39405;BME280;25121;51.090;17.038;2023-03-16T04:38:35;100611.44;;;2.19;64.05
39405;BME280;25121;51.090;17.038;2023-03-16T04:40:03;100622.19;;;2.17;64.20
39405;BME280;25121;51.090;17.038;2023-03-16T04:41:39;100623.97;;;2.17;64.20
39405;BME280;25121;51.090;17.038;2023-03-16T04:43:17;100617.81;;;2.16;64.03
39405;BME280;25121;51.090;17.038;2023-03-16T04:44:48;100626.84;;;2.13;64.21
39405;BME280;25121;51.090;17.038;2023-03-16T04:46:17;100620.06;;;2.09;64.19
39405;BME280;25121;51.090;17.038;2023-03-16T04:47:39;100626.13;;;2.11;64.16
39405;BME280;25121;51.090;17.038;2023-03-16T04:49:01;100626.22;;;2.10;64.07
39405;BME280;25121;51.090;17.038;2023-03-16T04:50:25;100630.53;;;2.11;64.25
39405;BME280;25121;51.090;17.038;2023-03-16T04:51:48;100626.97;;;2.12;63.91
39405;BME280;25121;51.090;17.038;2023-03-16T04:53:11;100627.81;;;2.12;64.32
39405;BME280;25121;51.090;17.038;2023-03-16T04:54:36;100625.59;;;2.06;64.54
39405;BME280;25121;51.090;17.038;2023-03-16T04:55:57;100631.50;;;2.10;64.40
39405;BME280;25121;51.090;17.038;2023-03-16T04:57:20;100634.06;;;2.11;64.43
39405;BME280;25121;51.090;17.038;2023-03-16T04:58:45;100631.50;;;2.10;64.35
39405;BME280;25121;51.090;17.038;2023-03-16T05:00:08;100621.88;;;2.09;64.63
39405;BME280;25121;51.090;17.038;2023-03-16T05:01:38;100631.41;;;2.11;64.14
39405;BME280;25121;51.090;17.038;2023-03-16T05:03:00;100634.25;;;2.08;64.44
39405;BME280;25121;51.090;17.038;2023-03-16T05:04:24;100621.00;;;2.08;64.39
39405;BME280;25121;51.090;17.038;2023-03-16T05:05:49;100632.34;;;2.10;64.41
39405;BME280;25121;51.090;17.038;2023-03-16T05:07:11;100637.78;;;2.09;64.30
39405;BME280;25121;51.090;17.038;2023-03-16T05:08:38;100616.25;;;2.01;64.64
39405;BME280;25121;51.090;17.038;2023-03-16T05:10:00;100628.13;;;2.08;64.68
39405;BME280;25121;51.090;17.038;2023-03-16T05:11:22;100639.38;;;2.11;64.63
39405;BME280;25121;51.090;17.038;2023-03-16T05:12:49;100637.78;;;2.09;64.56
39405;BME280;25121;51.090;17.038;2023-03-16T05:14:11;100629.84;;;2.09;64.47
39405;BME280;25121;51.090;17.038;2023-03-16T05:15:47;100640.09;;;2.13;64.43
39405;BME280;25121;51.090;17.038;2023-03-16T05:17:14;100636.81;;;2.10;64.49
39405;BME280;25121;51.090;17.038;2023-03-16T05:18:38;100634.59;;;2.17;64.29
39405;BME280;25121;51.090;17.038;2023-03-16T05:20:00;100647.63;;;2.20;64.34
39405;BME280;25121;51.090;17.038;2023-03-16T05:21:32;100642.53;;;2.17;64.40
39405;BME280;25121;51.090;17.038;2023-03-16T05:23:00;100639.56;;;2.21;64.37
39405;BME280;25121;51.090;17.038;2023-03-16T05:24:25;100630.88;;;2.19;64.42
39405;BME280;25121;51.090;17.038;2023-03-16T05:25:48;100630.00;;;2.19;64.27
39405;BME280;25121;51.090;17.038;2023-03-16T05:27:13;100647.19;;;2.26;64.60
39405;BME280;25121;51.090;17.038;2023-03-16T05:28:36;100641.69;;;2.29;64.40
39405;BME280;25121;51.090;17.038;2023-03-16T05:30:06;100631.63;;;2.21;64.26
39405;BME280;25121;51.090;17.038;2023-03-16T05:31:28;100647.69;;;2.31;64.24
39405;BME280;25121;51.090;17.038;2023-03-16T05:32:55;100631.06;;;2.29;63.99
39405;BME280;25121;51.090;17.038;2023-03-16T05:34:19;100642.31;;;2.32;64.04
39405;BME280;25121;51.090;17.038;2023-03-16T05:35:41;100639.56;;;2.34;64.15
39405;BME280;25121;51.090;17.038;2023-03-16T05:37:08;100644.72;;;2.35;64.02
39405;BME280;25121;51.090;17.038;2023-03-16T05:38:29;100649.94;;;2.37;63.90
39405;BME280;25121;51.090;17.038;2023-03-16T05:39:52;100648.03;;;2.39;63.91
39405;BME280;25121;51.090;17.038;2023-03-16T05:41:17;100638.47;;;2.36;64.16
39405;BME280;25121;51.090;17.038;2023-03-16T05:43:01;100642.06;;;2.35;63.87
39405;BME280;25121;51.090;17.038;2023-03-16T05:44:27;100638.47;;;2.36;63.76
39405;BME280;25121;51.090;17.038;2023-03-16T05:46:01;100645.91;;;2.44;63.80
39405;BME280;25121;51.090;17.038;2023-03-16T05:47:25;100646.72;;;2.45;63.76
39405;BME280;25121;51.090;17.038;2023-03-16T05:48:49;100618.75;;;2.28;63.85
39405;BME280;25121;51.090;17.038;2023-03-16T05:50:14;100650.00;;;2.48;63.87
39405;BME280;25121;51.090;17.038;2023-03-16T05:51:38;100625.53;;;2.32;63.76
39405;BME280;25121;51.090;17.038;2023-03-16T05:53:01;100648.84;;;2.52;63.91
39405;BME280;25121;51.090;17.038;2023-03-16T05:54:24;100657.53;;;2.54;63.84
39405;BME280;25121;51.090;17.038;2023-03-16T05:55:55;100646.19;;;2.52;63.70
39405;BME280;25121;51.090;17.038;2023-03-16T05:57:17;100645.34;;;2.52;63.81
39405;BME280;25121;51.090;17.038;2023-03-16T05:58:41;100648.59;;;2.55;63.70
39405;BME280;25121;51.090;17.038;2023-03-16T06:00:05;100656.16;;;2.62;63.70
39405;BME280;25121;51.090;17.038;2023-03-16T06:01:31;100653.59;;;2.60;63.51
39405;BME280;25121;51.090;17.038;2023-03-16T06:02:55;100639.06;;;2.53;63.49
39405;BME280;25121;51.090;17.038;2023-03-16T06:04:22;100661.84;;;2.68;63.68
39405;BME280;25121;51.090;17.038;2023-03-16T06:05:44;100664.28;;;2.71;63.45
39405;BME280;25121;51.090;17.038;2023-03-16T06:07:07;100673.72;;;2.75;63.43
39405;BME280;25121;51.090;17.038;2023-03-16T06:08:30;100653.78;;;2.70;63.36
39405;BME280;25121;51.090;17.038;2023-03-16T06:10:00;100671.47;;;2.82;63.63
39405;BME280;25121;51.090;17.038;2023-03-16T06:11:23;100672.22;;;2.84;63.16
39405;BME280;25121;51.090;17.038;2023-03-16T06:12:45;100676.22;;;2.90;63.08
39405;BME280;25121;51.090;17.038;2023-03-16T06:14:07;100674.31;;;2.92;62.97
39405;BME280;25121;51.090;17.038;2023-03-16T06:15:29;100676.84;;;2.93;62.94
39405;BME280;25121;51.090;17.038;2023-03-16T06:16:54;100684.25;;;3.01;63.00
39405;BME280;25121;51.090;17.038;2023-03-16T06:18:17;100681.38;;;3.04;63.11
39405;BME280;25121;51.090;17.038;2023-03-16T06:19:39;100683.78;;;3.07;63.04
39405;BME280;25121;51.090;17.038;2023-03-16T06:21:01;100688.78;;;3.12;62.85
39405;BME280;25121;51.090;17.038;2023-03-16T06:22:25;100698.00;;;3.19;62.70
39405;BME280;25121;51.090;17.038;2023-03-16T06:23:51;100679.16;;;3.22;62.84
39405;BME280;25121;51.090;17.038;2023-03-16T06:25:14;100687.88;;;3.24;62.50
39405;BME280;25121;51.090;17.038;2023-03-16T06:26:38;100695.16;;;3.33;62.28
39405;BME280;25121;51.090;17.038;2023-03-16T06:28:04;100697.34;;;3.39;62.58
39405;BME280;25121;51.090;17.038;2023-03-16T06:29:27;100688.44;;;3.40;62.26
39405;BME280;25121;51.090;17.038;2023-03-16T06:30:52;100682.06;;;3.43;62.21
39405;BME280;25121;51.090;17.038;2023-03-16T06:32:16;100690.03;;;3.54;62.19
39405;BME280;25121;51.090;17.038;2023-03-16T06:33:38;100687.03;;;3.59;61.95
39405;BME280;25121;51.090;17.038;2023-03-16T06:35:01;100690.19;;;3.64;61.82
39405;BME280;25121;51.090;17.038;2023-03-16T06:36:24;100687.94;;;3.71;61.78
39405;BME280;25121;51.090;17.038;2023-03-16T06:37:49;100702.31;;;3.79;61.68
39405;BME280;25121;51.090;17.038;2023-03-16T06:39:45;100692.91;;;3.86;61.41
39405;BME280;25121;51.090;17.038;2023-03-16T06:41:10;100690.03;;;3.89;61.37
39405;BME280;25121;51.090;17.038;2023-03-16T06:42:32;100694.53;;;4.00;61.27
39405;BME280;25121;51.090;17.038;2023-03-16T06:43:55;100684.50;;;4.04;61.01
39405;BME280;25121;51.090;17.038;2023-03-16T06:45:18;100696.00;;;4.16;61.20
39405;BME280;25121;51.090;17.038;2023-03-16T06:46:42;100687.41;;;4.23;60.78
39405;BME280;25121;51.090;17.038;2023-03-16T06:48:05;100691.78;;;4.36;60.49
39405;BME280;25121;51.090;17.038;2023-03-16T06:49:29;100692.13;;;4.53;60.49
39405;BME280;25121;51.090;17.038;2023-03-16T06:50:53;100693.09;;;4.64;60.27
39405;BME280;25121;51.090;17.038;2023-03-16T06:52:21;100703.00;;;4.84;60.08
39405;BME280;25121;51.090;17.038;2023-03-16T06:53:43;100701.03;;;4.97;59.91
39405;BME280;25121;51.090;17.038;2023-03-16T06:55:08;100661.00;;;4.88;59.55
39405;BME280;25121;51.090;17.038;2023-03-16T06:56:31;100688.63;;;5.19;59.30
39405;BME280;25121;51.090;17.038;2023-03-16T06:57:54;100691.84;;;5.34;58.99
39405;BME280;25121;51.090;17.038;2023-03-16T06:59:17;100701.72;;;5.54;58.94
39405;BME280;25121;51.090;17.038;2023-03-16T07:00:38;100690.53;;;5.60;58.57
39405;BME280;25121;51.090;17.038;2023-03-16T07:02:01;100710.06;;;5.82;58.36
39405;BME280;25121;51.090;17.038;2023-03-16T07:03:26;100692.41;;;5.91;58.12
39405;BME280;25121;51.090;17.038;2023-03-16T07:04:54;100700.59;;;6.10;57.83
39405;BME280;25121;51.090;17.038;2023-03-16T07:06:17;100676.13;;;6.05;57.44
39405;BME280;25121;51.090;17.038;2023-03-16T07:07:38;100708.56;;;6.31;57.48
39405;BME280;25121;51.090;17.038;2023-03-16T07:09:02;100703.97;;;6.43;57.00
39405;BME280;25121;51.090;17.038;2023-03-16T07:10:26;100701.34;;;6.53;56.67
39405;BME280;25121;51.090;17.038;2023-03-16T07:11:50;100718.28;;;6.73;56.34
39405;BME280;25121;51.090;17.038;2023-03-16T07:13:12;100709.47;;;6.82;56.08
39405;BME280;25121;51.090;17.038;2023-03-16T07:14:35;100704.44;;;6.88;55.80
39405;BME280;25121;51.090;17.038;2023-03-16T07:15:58;100716.88;;;7.09;55.28
39405;BME280;25121;51.090;17.038;2023-03-16T07:17:24;100680.56;;;7.06;55.17
39405;BME280;25121;51.090;17.038;2023-03-16T07:18:48;100719.44;;;7.40;55.05
39405;BME280;25121;51.090;17.038;2023-03-16T07:20:14;100704.69;;;7.45;54.66
39405;BME280;25121;51.090;17.038;2023-03-16T07:21:43;100703.41;;;7.59;54.36
39405;BME280;25121;51.090;17.038;2023-03-16T07:23:08;100713.09;;;7.80;54.31
39405;BME280;25121;51.090;17.038;2023-03-16T07:24:33;100712.13;;;7.90;54.01